sensor_id;sensor_type;location;lat;lon;timestamp;P1;durP1;ratioP1;P2;durP2;ratioP2
3755;SDS011;1893;52.526;13.360;2023-03-24T00:01:12;5.83;;;3.63;;
3755;SDS011;1893;52.526;13.360;2023-03-24T00:03:39;5.10;;;3.07;;
3755;SDS011;1893;52.526;13.360;2023-03-24T00:06:05;5.10;;;3.07;;
3755;SDS011;1893;52.526;13.360;2023-03-24T00:08:33;3.93;;;3.63;;
3755;SDS011;1893;52.526;13.360;2023-03-24T00:11:01;4.57;;;3.23;;
3755;SDS011;1893;52.526;13.360;2023-03-24T00:13:35;2.77;;;2.57;;
3755;SDS011;1893;52.526;13.360;2023-03-24T00:16:11;3.30;;;2.73;;
3755;SDS011;1893;52.526;13.360;2023-03-24T00:18:40;4.10;;;3.60;;
3755;SDS011;1893;52.526;13.360;2023-03-24T00:21:06;4.00;;;3.40;;
3755;SDS011;1893;52.526;13.360;2023-03-24T00:23:33;5.37;;;3.20;;
3755;SDS011;1893;52.526;13.360;2023-03-24T00:26:06;3.83;;;2.90;;
3755;SDS011;1893;52.526;13.360;2023-03-24T00:28:34;3.87;;;3.47;;
3755;SDS011;1893;52.526;13.360;2023-03-24T00:31:01;2.60;;;2.40;;
3755;SDS011;1893;52.526;13.360;2023-03-24T00:33:28;4.43;;;3.07;;
3755;SDS011;1893;52.526;13.360;2023-03-24T00:35:55;2.80;;;2.60;;
3755;SDS011;1893;52.526;13.360;2023-03-24T00:38:21;6.23;;;3.40;;
3755;SDS011;1893;52.526;13.360;2023-03-24T00:40:48;4.40;;;3.70;;
3755;SDS011;1893;52.526;13.360;2023-03-24T00:43:14;2.27;;;2.10;;
3755;SDS011;1893;52.526;13.360;2023-03-24T00:45:40;5.40;;;2.83;;
3755;SDS011;1893;52.526;13.360;2023-03-24T00:48:16;4.33;;;3.23;;
3755;SDS011;1893;52.526;13.360;2023-03-24T00:50:44;5.17;;;3.80;;
3755;SDS011;1893;52.526;13.360;2023-03-24T00:53:12;3.00;;;2.70;;
3755;SDS011;1893;52.526;13.360;2023-03-24T00:55:44;3.90;;;2.70;;
3755;SDS011;1893;52.526;13.360;2023-03-24T00:58:12;2.83;;;2.23;;
3755;SDS011;1893;52.526;13.360;2023-03-24T01:00:43;4.43;;;3.03;;
3755;SDS011;1893;52.526;13.360;2023-03-24T01:03:10;2.47;;;2.27;;
3755;SDS011;1893;52.526;13.360;2023-03-24T01:05:36;5.60;;;2.93;;
3755;SDS011;1893;52.526;13.360;2023-03-24T01:08:02;6.70;;;2.70;;
3755;SDS011;1893;52.526;13.360;2023-03-24T01:10:29;2.83;;;2.63;;
3755;SDS011;1893;52.526;13.360;2023-03-24T01:12:59;2.53;;;2.30;;
3755;SDS011;1893;52.526;13.360;2023-03-24T01:15:30;3.47;;;2.50;;
3755;SDS011;1893;52.526;13.360;2023-03-24T01:17:57;4.53;;;2.80;;
3755;SDS011;1893;52.526;13.360;2023-03-24T01:20:26;4.10;;;2.40;;
3755;SDS011;1893;52.526;13.360;2023-03-24T01:22:56;2.80;;;2.60;;
3755;SDS011;1893;52.526;13.360;2023-03-24T01:25:23;3.33;;;3.13;;
3755;SDS011;1893;52.526;13.360;2023-03-24T01:27:50;2.00;;;1.87;;
3755;SDS011;1893;52.526;13.360;2023-03-24T01:30:18;2.10;;;2.00;;
3755;SDS011;1893;52.526;13.360;2023-03-24T01:32:46;2.63;;;2.43;;
3755;SDS011;1893;52.526;13.360;2023-03-24T01:35:12;3.10;;;2.40;;
3755;SDS011;1893;52.526;13.360;2023-03-24T01:37:38;3.93;;;2.83;;
3755;SDS011;1893;52.526;13.360;2023-03-24T01:40:04;2.83;;;2.63;;
3755;SDS011;1893;52.526;13.360;2023-03-24T01:42:33;3.67;;;3.37;;
3755;SDS011;1893;52.526;13.360;2023-03-24T01:45:01;2.67;;;2.43;;
3755;SDS011;1893;52.526;13.360;2023-03-24T01:48:15;3.07;;;2.70;;
3755;SDS011;1893;52.526;13.360;2023-03-24T01:50:45;2.90;;;2.70;;
3755;SDS011;1893;52.526;13.360;2023-03-24T01:53:16;3.30;;;3.10;;
3755;SDS011;1893;52.526;13.360;2023-03-24T01:55:42;4.20;;;3.03;;
3755;SDS011;1893;52.526;13.360;2023-03-24T01:58:11;2.70;;;2.50;;
3755;SDS011;1893;52.526;13.360;2023-03-24T02:00:37;3.50;;;2.80;;
3755;SDS011;1893;52.526;13.360;2023-03-24T02:03:05;3.23;;;3.00;;
3755;SDS011;1893;52.526;13.360;2023-03-24T02:05:41;3.13;;;2.90;;
3755;SDS011;1893;52.526;13.360;2023-03-24T02:10:51;3.40;;;2.83;;
3755;SDS011;1893;52.526;13.360;2023-03-24T02:13:19;4.30;;;2.50;;
3755;SDS011;1893;52.526;13.360;2023-03-24T02:18:40;3.07;;;2.77;;
3755;SDS011;1893;52.526;13.360;2023-03-24T02:26:51;4.60;;;2.93;;
3755;SDS011;1893;52.526;13.360;2023-03-24T02:46:25;3.50;;;2.80;;
3755;SDS011;1893;52.526;13.360;2023-03-24T02:49:08;3.10;;;2.90;;
3755;SDS011;1893;52.526;13.360;2023-03-24T02:54:24;4.83;;;3.13;;
3755;SDS011;1893;52.526;13.360;2023-03-24T02:56:57;4.07;;;3.03;;
3755;SDS011;1893;52.526;13.360;2023-03-24T02:59:41;2.90;;;2.60;;
3755;SDS011;1893;52.526;13.360;2023-03-24T03:02:49;3.03;;;2.70;;
3755;SDS011;1893;52.526;13.360;2023-03-24T03:05:12;5.17;;;3.30;;
3755;SDS011;1893;52.526;13.360;2023-03-24T03:08:12;4.30;;;3.60;;
3755;SDS011;1893;52.526;13.360;2023-03-24T03:10:41;4.20;;;2.83;;
3755;SDS011;1893;52.526;13.360;2023-03-24T03:13:12;4.30;;;4.00;;
3755;SDS011;1893;52.526;13.360;2023-03-24T03:15:53;2.87;;;2.67;;
3755;SDS011;1893;52.526;13.360;2023-03-24T03:18:32;3.53;;;3.20;;
3755;SDS011;1893;52.526;13.360;2023-03-24T03:21:11;3.20;;;3.00;;
3755;SDS011;1893;52.526;13.360;2023-03-24T03:23:41;4.20;;;3.90;;
3755;SDS011;1893;52.526;13.360;2023-03-24T03:26:28;3.10;;;2.90;;
3755;SDS011;1893;52.526;13.360;2023-03-24T03:28:57;3.30;;;3.10;;
3755;SDS011;1893;52.526;13.360;2023-03-24T03:31:39;3.73;;;3.00;;
3755;SDS011;1893;52.526;13.360;2023-03-24T03:39:55;3.57;;;2.90;;
3755;SDS011;1893;52.526;13.360;2023-03-24T03:45:11;3.30;;;3.00;;
3755;SDS011;1893;52.526;13.360;2023-03-24T03:47:38;5.87;;;3.93;;
3755;SDS011;1893;52.526;13.360;2023-03-24T03:50:05;4.03;;;3.70;;
3755;SDS011;1893;52.526;13.360;2023-03-24T03:52:33;4.93;;;3.53;;
3755;SDS011;1893;52.526;13.360;2023-03-24T03:55:00;4.10;;;3.70;;
3755;SDS011;1893;52.526;13.360;2023-03-24T03:57:27;3.90;;;3.60;;
3755;SDS011;1893;52.526;13.360;2023-03-24T03:59:53;3.80;;;3.50;;
3755;SDS011;1893;52.526;13.360;2023-03-24T04:22:23;4.20;;;3.90;;
3755;SDS011;1893;52.526;13.360;2023-03-24T04:24:58;6.07;;;5.47;;
3755;SDS011;1893;52.526;13.360;2023-03-24T04:33:04;5.40;;;4.63;;
3755;SDS011;1893;52.526;13.360;2023-03-24T04:35:36;4.83;;;4.20;;
3755;SDS011;1893;52.526;13.360;2023-03-24T04:38:09;11.20;;;4.60;;
3755;SDS011;1893;52.526;13.360;2023-03-24T04:40:41;4.93;;;4.43;;
3755;SDS011;1893;52.526;13.360;2023-03-24T04:43:14;7.10;;;5.03;;
3755;SDS011;1893;52.526;13.360;2023-03-24T04:45:43;6.80;;;5.43;;
3755;SDS011;1893;52.526;13.360;2023-03-24T04:48:13;6.03;;;5.50;;
3755;SDS011;1893;52.526;13.360;2023-03-24T04:50:43;5.63;;;4.97;;
3755;SDS011;1893;52.526;13.360;2023-03-24T04:53:20;5.73;;;4.43;;
3755;SDS011;1893;52.526;13.360;2023-03-24T04:58:14;7.20;;;5.50;;
3755;SDS011;1893;52.526;13.360;2023-03-24T05:00:41;5.30;;;4.67;;
3755;SDS011;1893;52.526;13.360;2023-03-24T05:03:10;5.40;;;4.80;;
3755;SDS011;1893;52.526;13.360;2023-03-24T05:05:40;5.40;;;4.90;;
3755;SDS011;1893;52.526;13.360;2023-03-24T05:08:09;4.60;;;4.20;;
3755;SDS011;1893;52.526;13.360;2023-03-24T05:10:35;6.10;;;4.20;;
3755;SDS011;1893;52.526;13.360;2023-03-24T05:13:02;5.07;;;4.67;;
3755;SDS011;1893;52.526;13.360;2023-03-24T05:15:29;5.13;;;4.63;;
3755;SDS011;1893;52.526;13.360;2023-03-24T05:17:55;6.57;;;4.50;;
3755;SDS011;1893;52.526;13.360;2023-03-24T05:20:21;7.70;;;5.23;;
3755;SDS011;1893;52.526;13.360;2023-03-24T05:22:47;5.87;;;5.37;;
3755;SDS011;1893;52.526;13.360;2023-03-24T05:25:13;7.30;;;4.50;;
3755;SDS011;1893;52.526;13.360;2023-03-24T05:27:40;7.10;;;5.13;;
3755;SDS011;1893;52.526;13.360;2023-03-24T05:30:06;4.97;;;4.47;;
3755;SDS011;1893;52.526;13.360;2023-03-24T05:32:32;6.70;;;5.10;;
3755;SDS011;1893;52.526;13.360;2023-03-24T05:34:58;5.47;;;5.07;;
3755;SDS011;1893;52.526;13.360;2023-03-24T05:37:24;5.43;;;4.93;;
3755;SDS011;1893;52.526;13.360;2023-03-24T05:39:49;4.10;;;3.73;;
3755;SDS011;1893;52.526;13.360;2023-03-24T05:42:15;4.47;;;4.07;;
3755;SDS011;1893;52.526;13.360;2023-03-24T05:44:41;6.10;;;4.37;;
3755;SDS011;1893;52.526;13.360;2023-03-24T05:47:07;6.43;;;4.07;;
3755;SDS011;1893;52.526;13.360;2023-03-24T05:49:33;6.33;;;4.30;;
3755;SDS011;1893;52.526;13.360;2023-03-24T05:51:59;5.67;;;4.20;;
3755;SDS011;1893;52.526;13.360;2023-03-24T05:54:25;6.90;;;4.30;;
3755;SDS011;1893;52.526;13.360;2023-03-24T05:56:50;5.77;;;4.47;;
3755;SDS011;1893;52.526;13.360;2023-03-24T05:59:16;4.37;;;3.90;;
3755;SDS011;1893;52.526;13.360;2023-03-24T06:01:42;5.23;;;4.63;;
3755;SDS011;1893;52.526;13.360;2023-03-24T06:04:07;7.53;;;3.87;;
3755;SDS011;1893;52.526;13.360;2023-03-24T06:06:33;5.47;;;4.20;;
3755;SDS011;1893;52.526;13.360;2023-03-24T06:08:59;7.10;;;5.50;;
3755;SDS011;1893;52.526;13.360;2023-03-24T06:11:28;5.10;;;4.70;;
3755;SDS011;1893;52.526;13.360;2023-03-24T06:13:54;4.50;;;3.70;;
3755;SDS011;1893;52.526;13.360;2023-03-24T06:16:27;4.77;;;4.37;;
3755;SDS011;1893;52.526;13.360;2023-03-24T06:18:53;6.10;;;4.37;;
3755;SDS011;1893;52.526;13.360;2023-03-24T06:21:20;4.60;;;4.20;;
3755;SDS011;1893;52.526;13.360;2023-03-24T06:23:46;5.33;;;4.20;;
3755;SDS011;1893;52.526;13.360;2023-03-24T06:26:12;4.37;;;3.87;;
3755;SDS011;1893;52.526;13.360;2023-03-24T06:28:39;6.50;;;3.90;;
3755;SDS011;1893;52.526;13.360;2023-03-24T06:31:06;5.20;;;4.77;;
3755;SDS011;1893;52.526;13.360;2023-03-24T06:33:38;5.63;;;3.97;;
3755;SDS011;1893;52.526;13.360;2023-03-24T06:36:05;5.40;;;4.33;;
3755;SDS011;1893;52.526;13.360;2023-03-24T06:38:31;5.70;;;4.13;;
3755;SDS011;1893;52.526;13.360;2023-03-24T06:41:00;4.70;;;4.10;;
3755;SDS011;1893;52.526;13.360;2023-03-24T06:43:26;5.10;;;4.60;;
3755;SDS011;1893;52.526;13.360;2023-03-24T06:45:52;5.37;;;4.03;;
3755;SDS011;1893;52.526;13.360;2023-03-24T06:48:17;5.53;;;4.50;;
3755;SDS011;1893;52.526;13.360;2023-03-24T06:50:43;4.30;;;3.90;;
3755;SDS011;1893;52.526;13.360;2023-03-24T06:53:09;4.30;;;3.90;;
3755;SDS011;1893;52.526;13.360;2023-03-24T06:55:35;5.40;;;4.90;;
3755;SDS011;1893;52.526;13.360;2023-03-24T06:58:00;4.40;;;4.00;;
3755;SDS011;1893;52.526;13.360;2023-03-24T07:00:26;5.03;;;4.47;;
3755;SDS011;1893;52.526;13.360;2023-03-24T07:02:53;6.13;;;3.90;;
3755;SDS011;1893;52.526;13.360;2023-03-24T07:05:20;5.63;;;4.17;;
3755;SDS011;1893;52.526;13.360;2023-03-24T07:07:46;4.93;;;4.43;;
3755;SDS011;1893;52.526;13.360;2023-03-24T07:10:12;4.57;;;3.70;;
3755;SDS011;1893;52.526;13.360;2023-03-24T07:12:38;11.80;;;5.00;;
3755;SDS011;1893;52.526;13.360;2023-03-24T07:15:04;4.83;;;4.00;;
3755;SDS011;1893;52.526;13.360;2023-03-24T07:17:32;8.93;;;5.53;;
3755;SDS011;1893;52.526;13.360;2023-03-24T07:19:58;7.10;;;5.17;;
3755;SDS011;1893;52.526;13.360;2023-03-24T07:22:24;6.80;;;4.70;;
3755;SDS011;1893;52.526;13.360;2023-03-24T07:24:49;8.17;;;4.80;;
3755;SDS011;1893;52.526;13.360;2023-03-24T07:27:16;5.63;;;4.20;;
3755;SDS011;1893;52.526;13.360;2023-03-24T07:29:42;5.73;;;4.43;;
3755;SDS011;1893;52.526;13.360;2023-03-24T07:32:07;7.00;;;4.67;;
3755;SDS011;1893;52.526;13.360;2023-03-24T07:34:33;5.30;;;3.57;;
3755;SDS011;1893;52.526;13.360;2023-03-24T07:37:00;9.20;;;3.90;;
3755;SDS011;1893;52.526;13.360;2023-03-24T07:39:26;6.37;;;5.00;;
3755;SDS011;1893;52.526;13.360;2023-03-24T07:41:52;5.93;;;3.43;;
3755;SDS011;1893;52.526;13.360;2023-03-24T07:44:17;5.40;;;3.60;;
3755;SDS011;1893;52.526;13.360;2023-03-24T07:46:43;3.80;;;3.50;;
3755;SDS011;1893;52.526;13.360;2023-03-24T07:49:09;4.53;;;3.50;;
3755;SDS011;1893;52.526;13.360;2023-03-24T07:51:35;5.90;;;3.60;;
3755;SDS011;1893;52.526;13.360;2023-03-24T07:54:01;3.93;;;3.53;;
3755;SDS011;1893;52.526;13.360;2023-03-24T07:56:27;3.30;;;3.00;;
3755;SDS011;1893;52.526;13.360;2023-03-24T07:58:52;5.80;;;4.10;;
3755;SDS011;1893;52.526;13.360;2023-03-24T08:01:18;4.13;;;3.60;;
3755;SDS011;1893;52.526;13.360;2023-03-24T08:03:43;5.27;;;4.13;;
3755;SDS011;1893;52.526;13.360;2023-03-24T08:06:13;5.00;;;4.33;;
3755;SDS011;1893;52.526;13.360;2023-03-24T08:08:39;5.07;;;4.27;;
3755;SDS011;1893;52.526;13.360;2023-03-24T08:11:05;7.07;;;4.20;;
3755;SDS011;1893;52.526;13.360;2023-03-24T08:13:31;7.23;;;4.27;;
3755;SDS011;1893;52.526;13.360;2023-03-24T08:15:56;4.27;;;3.40;;
3755;SDS011;1893;52.526;13.360;2023-03-24T08:18:22;5.07;;;4.27;;
3755;SDS011;1893;52.526;13.360;2023-03-24T08:20:49;4.53;;;4.13;;
3755;SDS011;1893;52.526;13.360;2023-03-24T08:23:19;6.63;;;4.60;;
3755;SDS011;1893;52.526;13.360;2023-03-24T08:25:45;4.63;;;4.10;;
3755;SDS011;1893;52.526;13.360;2023-03-24T08:28:11;6.70;;;4.03;;
3755;SDS011;1893;52.526;13.360;2023-03-24T08:30:37;6.57;;;4.83;;
3755;SDS011;1893;52.526;13.360;2023-03-24T08:33:03;11.23;;;5.27;;
3755;SDS011;1893;52.526;13.360;2023-03-24T08:35:33;5.83;;;4.63;;
3755;SDS011;1893;52.526;13.360;2023-03-24T08:38:02;4.57;;;4.17;;
3755;SDS011;1893;52.526;13.360;2023-03-24T08:40:29;5.17;;;4.60;;
3755;SDS011;1893;52.526;13.360;2023-03-24T08:42:56;6.03;;;4.47;;
3755;SDS011;1893;52.526;13.360;2023-03-24T08:45:24;10.93;;;5.23;;
3755;SDS011;1893;52.526;13.360;2023-03-24T08:47:54;4.70;;;4.20;;
3755;SDS011;1893;52.526;13.360;2023-03-24T08:50:23;6.80;;;4.53;;
3755;SDS011;1893;52.526;13.360;2023-03-24T08:52:52;4.90;;;4.33;;
3755;SDS011;1893;52.526;13.360;2023-03-24T08:55:20;3.77;;;3.40;;
3755;SDS011;1893;52.526;13.360;2023-03-24T08:57:46;5.10;;;4.53;;
3755;SDS011;1893;52.526;13.360;2023-03-24T09:00:13;4.87;;;3.77;;
3755;SDS011;1893;52.526;13.360;2023-03-24T09:02:43;6.70;;;4.87;;
3755;SDS011;1893;52.526;13.360;2023-03-24T09:05:10;5.70;;;4.53;;
3755;SDS011;1893;52.526;13.360;2023-03-24T09:07:36;4.77;;;3.10;;
3755;SDS011;1893;52.526;13.360;2023-03-24T09:10:04;4.30;;;3.43;;
3755;SDS011;1893;52.526;13.360;2023-03-24T09:12:31;4.90;;;4.40;;
3755;SDS011;1893;52.526;13.360;2023-03-24T09:14:57;3.60;;;3.30;;
3755;SDS011;1893;52.526;13.360;2023-03-24T09:17:23;6.17;;;4.67;;
3755;SDS011;1893;52.526;13.360;2023-03-24T09:19:48;4.53;;;3.53;;
3755;SDS011;1893;52.526;13.360;2023-03-24T09:22:14;4.00;;;3.67;;
3755;SDS011;1893;52.526;13.360;2023-03-24T09:24:39;4.17;;;3.70;;
3755;SDS011;1893;52.526;13.360;2023-03-24T09:27:05;5.80;;;3.20;;
3755;SDS011;1893;52.526;13.360;2023-03-24T09:29:31;4.37;;;3.60;;
3755;SDS011;1893;52.526;13.360;2023-03-24T09:31:56;5.00;;;4.33;;
3755;SDS011;1893;52.526;13.360;2023-03-24T09:34:22;4.17;;;3.60;;
3755;SDS011;1893;52.526;13.360;2023-03-24T09:36:49;5.43;;;4.17;;
3755;SDS011;1893;52.526;13.360;2023-03-24T09:39:15;4.23;;;3.70;;
3755;SDS011;1893;52.526;13.360;2023-03-24T09:41:41;4.20;;;3.67;;
3755;SDS011;1893;52.526;13.360;2023-03-24T09:46:57;4.30;;;3.87;;
3755;SDS011;1893;52.526;13.360;2023-03-24T09:49:29;4.03;;;3.40;;
3755;SDS011;1893;52.526;13.360;2023-03-24T09:52:01;6.70;;;3.93;;
3755;SDS011;1893;52.526;13.360;2023-03-24T09:54:47;5.07;;;4.03;;
3755;SDS011;1893;52.526;13.360;2023-03-24T09:57:19;4.33;;;3.93;;
3755;SDS011;1893;52.526;13.360;2023-03-24T10:00:26;3.97;;;3.03;;
3755;SDS011;1893;52.526;13.360;2023-03-24T10:02:56;6.60;;;3.67;;
3755;SDS011;1893;52.526;13.360;2023-03-24T10:05:59;3.10;;;2.80;;
3755;SDS011;1893;52.526;13.360;2023-03-24T10:08:40;6.93;;;3.40;;
3755;SDS011;1893;52.526;13.360;2023-03-24T10:18:48;2.87;;;2.67;;
3755;SDS011;1893;52.526;13.360;2023-03-24T10:21:25;3.40;;;2.80;;
3755;SDS011;1893;52.526;13.360;2023-03-24T10:29:18;3.10;;;2.40;;
3755;SDS011;1893;52.526;13.360;2023-03-24T10:32:05;2.63;;;2.23;;
3755;SDS011;1893;52.526;13.360;2023-03-24T10:34:35;3.23;;;2.93;;
3755;SDS011;1893;52.526;13.360;2023-03-24T10:37:03;4.70;;;4.00;;
3755;SDS011;1893;52.526;13.360;2023-03-24T10:39:29;2.90;;;2.70;;
3755;SDS011;1893;52.526;13.360;2023-03-24T10:41:56;3.33;;;2.70;;
3755;SDS011;1893;52.526;13.360;2023-03-24T10:44:23;6.07;;;2.30;;
3755;SDS011;1893;52.526;13.360;2023-03-24T10:46:51;7.27;;;3.33;;
3755;SDS011;1893;52.526;13.360;2023-03-24T10:49:20;8.50;;;3.20;;
3755;SDS011;1893;52.526;13.360;2023-03-24T10:51:51;2.90;;;2.50;;
3755;SDS011;1893;52.526;13.360;2023-03-24T10:54:21;3.50;;;3.23;;
3755;SDS011;1893;52.526;13.360;2023-03-24T10:56:49;3.10;;;2.53;;
3755;SDS011;1893;52.526;13.360;2023-03-24T11:02:33;5.20;;;3.17;;
3755;SDS011;1893;52.526;13.360;2023-03-24T11:04:49;2.83;;;2.63;;
3755;SDS011;1893;52.526;13.360;2023-03-24T11:07:30;3.03;;;2.60;;
3755;SDS011;1893;52.526;13.360;2023-03-24T11:10:01;2.93;;;2.73;;
3755;SDS011;1893;52.526;13.360;2023-03-24T11:13:04;3.33;;;2.83;;
3755;SDS011;1893;52.526;13.360;2023-03-24T11:15:32;3.43;;;3.13;;
3755;SDS011;1893;52.526;13.360;2023-03-24T11:20:51;4.90;;;2.80;;
3755;SDS011;1893;52.526;13.360;2023-03-24T11:26:07;2.73;;;2.43;;
3755;SDS011;1893;52.526;13.360;2023-03-24T11:28:39;4.27;;;2.53;;
3755;SDS011;1893;52.526;13.360;2023-03-24T11:31:09;2.60;;;2.40;;
3755;SDS011;1893;52.526;13.360;2023-03-24T11:39:16;3.17;;;2.47;;
3755;SDS011;1893;52.526;13.360;2023-03-24T11:44:33;7.00;;;2.60;;
3755;SDS011;1893;52.526;13.360;2023-03-24T11:55:14;2.73;;;2.50;;
3755;SDS011;1893;52.526;13.360;2023-03-24T11:57:56;3.30;;;2.70;;
3755;SDS011;1893;52.526;13.360;2023-03-24T12:00:45;6.57;;;3.10;;
3755;SDS011;1893;52.526;13.360;2023-03-24T12:03:24;3.73;;;2.97;;
3755;SDS011;1893;52.526;13.360;2023-03-24T12:06:34;5.33;;;3.27;;
3755;SDS011;1893;52.526;13.360;2023-03-24T12:30:43;3.90;;;2.73;;
3755;SDS011;1893;52.526;13.360;2023-03-24T12:39:01;2.83;;;2.50;;
3755;SDS011;1893;52.526;13.360;2023-03-24T12:41:53;2.43;;;2.23;;
3755;SDS011;1893;52.526;13.360;2023-03-24T12:55:38;2.37;;;2.17;;
3755;SDS011;1893;52.526;13.360;2023-03-24T13:04:04;2.60;;;2.40;;
3755;SDS011;1893;52.526;13.360;2023-03-24T13:06:43;2.87;;;2.67;;
3755;SDS011;1893;52.526;13.360;2023-03-24T13:09:33;2.87;;;2.70;;
3755;SDS011;1893;52.526;13.360;2023-03-24T13:12:04;2.33;;;2.10;;
3755;SDS011;1893;52.526;13.360;2023-03-24T13:14:43;2.40;;;2.20;;
3755;SDS011;1893;52.526;13.360;2023-03-24T13:20:33;2.63;;;2.43;;
3755;SDS011;1893;52.526;13.360;2023-03-24T13:28:56;1.90;;;1.80;;
3755;SDS011;1893;52.526;13.360;2023-03-24T13:31:30;1.83;;;1.73;;
3755;SDS011;1893;52.526;13.360;2023-03-24T13:34:04;3.73;;;1.60;;
3755;SDS011;1893;52.526;13.360;2023-03-24T13:36:41;3.83;;;2.03;;
3755;SDS011;1893;52.526;13.360;2023-03-24T13:39:18;7.13;;;6.43;;
3755;SDS011;1893;52.526;13.360;2023-03-24T13:41:49;3.80;;;3.43;;
3755;SDS011;1893;52.526;13.360;2023-03-24T13:44:52;3.93;;;1.90;;
3755;SDS011;1893;52.526;13.360;2023-03-24T13:47:13;6.30;;;2.40;;
3755;SDS011;1893;52.526;13.360;2023-03-24T13:49:41;2.30;;;2.10;;
3755;SDS011;1893;52.526;13.360;2023-03-24T13:52:53;2.60;;;2.00;;
3755;SDS011;1893;52.526;13.360;2023-03-24T13:55:10;3.40;;;2.10;;
3755;SDS011;1893;52.526;13.360;2023-03-24T13:57:54;1.57;;;1.47;;
3755;SDS011;1893;52.526;13.360;2023-03-24T14:00:24;2.13;;;2.00;;
3755;SDS011;1893;52.526;13.360;2023-03-24T14:02:52;3.97;;;1.60;;
3755;SDS011;1893;52.526;13.360;2023-03-24T14:15:26;2.40;;;2.20;;
3755;SDS011;1893;52.526;13.360;2023-03-24T14:17:55;3.80;;;1.97;;
3755;SDS011;1893;52.526;13.360;2023-03-24T14:20:39;3.10;;;2.80;;
3755;SDS011;1893;52.526;13.360;2023-03-24T14:26:02;2.43;;;2.33;;
3755;SDS011;1893;52.526;13.360;2023-03-24T14:29:00;2.47;;;2.27;;
3755;SDS011;1893;52.526;13.360;2023-03-24T14:31:30;2.83;;;2.60;;
3755;SDS011;1893;52.526;13.360;2023-03-24T14:34:01;6.17;;;2.03;;
3755;SDS011;1893;52.526;13.360;2023-03-24T14:39:30;2.30;;;2.10;;
3755;SDS011;1893;52.526;13.360;2023-03-24T14:41:56;2.30;;;1.70;;
3755;SDS011;1893;52.526;13.360;2023-03-24T14:49:50;7.00;;;2.10;;
3755;SDS011;1893;52.526;13.360;2023-03-24T14:54:58;5.30;;;2.90;;
3755;SDS011;1893;52.526;13.360;2023-03-24T14:57:33;5.63;;;2.30;;
3755;SDS011;1893;52.526;13.360;2023-03-24T15:02:48;3.77;;;1.90;;
3755;SDS011;1893;52.526;13.360;2023-03-24T15:15:50;4.40;;;2.00;;
3755;SDS011;1893;52.526;13.360;2023-03-24T15:18:16;2.60;;;2.07;;
3755;SDS011;1893;52.526;13.360;2023-03-24T15:20:44;2.17;;;1.60;;
3755;SDS011;1893;52.526;13.360;2023-03-24T15:23:16;3.20;;;1.77;;
3755;SDS011;1893;52.526;13.360;2023-03-24T15:25:43;1.70;;;1.57;;
3755;SDS011;1893;52.526;13.360;2023-03-24T15:28:21;3.13;;;1.50;;
3755;SDS011;1893;52.526;13.360;2023-03-24T15:30:50;3.93;;;1.47;;
3755;SDS011;1893;52.526;13.360;2023-03-24T15:33:17;1.87;;;1.53;;
3755;SDS011;1893;52.526;13.360;2023-03-24T15:35:43;3.77;;;1.50;;
3755;SDS011;1893;52.526;13.360;2023-03-24T15:38:19;10.57;;;1.30;;
3755;SDS011;1893;52.526;13.360;2023-03-24T15:40:52;3.13;;;1.23;;
3755;SDS011;1893;52.526;13.360;2023-03-24T15:43:51;3.27;;;1.53;;
3755;SDS011;1893;52.526;13.360;2023-03-24T15:48:53;4.53;;;1.73;;
3755;SDS011;1893;52.526;13.360;2023-03-24T15:54:56;4.57;;;1.20;;
3755;SDS011;1893;52.526;13.360;2023-03-24T15:59:50;2.23;;;1.30;;
3755;SDS011;1893;52.526;13.360;2023-03-24T16:05:24;3.27;;;1.63;;
3755;SDS011;1893;52.526;13.360;2023-03-24T16:07:56;2.30;;;1.30;;
3755;SDS011;1893;52.526;13.360;2023-03-24T16:12:58;4.43;;;1.50;;
3755;SDS011;1893;52.526;13.360;2023-03-24T16:15:36;6.40;;;1.50;;
3755;SDS011;1893;52.526;13.360;2023-03-24T16:18:02;2.00;;;1.63;;
3755;SDS011;1893;52.526;13.360;2023-03-24T16:20:28;2.10;;;1.50;;
3755;SDS011;1893;52.526;13.360;2023-03-24T16:22:53;2.17;;;1.50;;
3755;SDS011;1893;52.526;13.360;2023-03-24T16:25:21;3.50;;;1.37;;
3755;SDS011;1893;52.526;13.360;2023-03-24T16:27:47;4.20;;;1.63;;
3755;SDS011;1893;52.526;13.360;2023-03-24T16:30:22;9.50;;;1.77;;
3755;SDS011;1893;52.526;13.360;2023-03-24T16:32:49;5.37;;;1.80;;
3755;SDS011;1893;52.526;13.360;2023-03-24T16:35:15;3.20;;;1.80;;
3755;SDS011;1893;52.526;13.360;2023-03-24T16:37:42;3.80;;;1.90;;
3755;SDS011;1893;52.526;13.360;2023-03-24T16:40:14;4.27;;;2.53;;
3755;SDS011;1893;52.526;13.360;2023-03-24T16:42:46;3.20;;;2.20;;
3755;SDS011;1893;52.526;13.360;2023-03-24T16:45:12;6.10;;;2.83;;
3755;SDS011;1893;52.526;13.360;2023-03-24T16:47:37;3.83;;;1.80;;
3755;SDS011;1893;52.526;13.360;2023-03-24T16:50:16;8.13;;;2.60;;
3755;SDS011;1893;52.526;13.360;2023-03-24T16:52:56;2.97;;;1.90;;
3755;SDS011;1893;52.526;13.360;2023-03-24T16:55:22;4.57;;;2.40;;
3755;SDS011;1893;52.526;13.360;2023-03-24T16:57:47;6.00;;;2.20;;
3755;SDS011;1893;52.526;13.360;2023-03-24T17:00:13;7.40;;;2.20;;
3755;SDS011;1893;52.526;13.360;2023-03-24T17:02:39;4.80;;;2.07;;
3755;SDS011;1893;52.526;13.360;2023-03-24T17:05:19;8.00;;;2.70;;
3755;SDS011;1893;52.526;13.360;2023-03-24T17:07:51;2.60;;;2.40;;
3755;SDS011;1893;52.526;13.360;2023-03-24T17:10:17;7.40;;;2.00;;
3755;SDS011;1893;52.526;13.360;2023-03-24T17:12:43;4.03;;;2.20;;
3755;SDS011;1893;52.526;13.360;2023-03-24T17:15:24;7.23;;;2.10;;
3755;SDS011;1893;52.526;13.360;2023-03-24T17:17:51;5.60;;;2.10;;
3755;SDS011;1893;52.526;13.360;2023-03-24T17:20:18;3.67;;;2.30;;
3755;SDS011;1893;52.526;13.360;2023-03-24T17:22:45;6.40;;;2.30;;
3755;SDS011;1893;52.526;13.360;2023-03-24T17:25:14;4.87;;;3.10;;
3755;SDS011;1893;52.526;13.360;2023-03-24T17:27:42;10.10;;;3.03;;
3755;SDS011;1893;52.526;13.360;2023-03-24T17:30:09;5.70;;;2.97;;
3755;SDS011;1893;52.526;13.360;2023-03-24T17:32:40;5.93;;;2.60;;
3755;SDS011;1893;52.526;13.360;2023-03-24T17:35:06;74.93;;;37.17;;
3755;SDS011;1893;52.526;13.360;2023-03-24T17:37:35;72.47;;;42.23;;
3755;SDS011;1893;52.526;13.360;2023-03-24T17:40:01;17.60;;;10.47;;
3755;SDS011;1893;52.526;13.360;2023-03-24T17:42:31;5.47;;;3.47;;
3755;SDS011;1893;52.526;13.360;2023-03-24T17:44:57;5.93;;;2.70;;
3755;SDS011;1893;52.526;13.360;2023-03-24T17:47:23;8.87;;;3.50;;
3755;SDS011;1893;52.526;13.360;2023-03-24T17:49:48;7.37;;;4.10;;
3755;SDS011;1893;52.526;13.360;2023-03-24T17:52:14;8.73;;;4.73;;
3755;SDS011;1893;52.526;13.360;2023-03-24T17:54:40;13.50;;;4.50;;
3755;SDS011;1893;52.526;13.360;2023-03-24T17:57:05;11.10;;;5.33;;
3755;SDS011;1893;52.526;13.360;2023-03-24T17:59:31;7.33;;;4.63;;
3755;SDS011;1893;52.526;13.360;2023-03-24T18:01:57;11.33;;;4.73;;
3755;SDS011;1893;52.526;13.360;2023-03-24T18:04:23;12.03;;;5.93;;
3755;SDS011;1893;52.526;13.360;2023-03-24T18:06:48;8.30;;;4.20;;
3755;SDS011;1893;52.526;13.360;2023-03-24T18:09:14;6.60;;;3.83;;
3755;SDS011;1893;52.526;13.360;2023-03-24T18:11:41;5.07;;;2.77;;
3755;SDS011;1893;52.526;13.360;2023-03-24T18:14:06;4.70;;;2.57;;
3755;SDS011;1893;52.526;13.360;2023-03-24T18:16:33;5.80;;;3.30;;
3755;SDS011;1893;52.526;13.360;2023-03-24T18:18:59;13.23;;;3.90;;
3755;SDS011;1893;52.526;13.360;2023-03-24T18:21:25;4.47;;;3.30;;
3755;SDS011;1893;52.526;13.360;2023-03-24T18:23:51;3.23;;;2.93;;
3755;SDS011;1893;52.526;13.360;2023-03-24T18:26:17;10.20;;;4.03;;
3755;SDS011;1893;52.526;13.360;2023-03-24T18:28:43;2.97;;;2.63;;
3755;SDS011;1893;52.526;13.360;2023-03-24T18:33:39;5.57;;;3.50;;
3755;SDS011;1893;52.526;13.360;2023-03-24T18:36:07;4.43;;;3.80;;
3755;SDS011;1893;52.526;13.360;2023-03-24T18:38:33;7.70;;;3.60;;
3755;SDS011;1893;52.526;13.360;2023-03-24T18:41:00;4.93;;;3.17;;
3755;SDS011;1893;52.526;13.360;2023-03-24T18:43:30;6.40;;;3.77;;
3755;SDS011;1893;52.526;13.360;2023-03-24T18:45:59;7.57;;;4.20;;
3755;SDS011;1893;52.526;13.360;2023-03-24T18:48:25;8.40;;;3.93;;
3755;SDS011;1893;52.526;13.360;2023-03-24T18:50:51;4.93;;;3.83;;
3755;SDS011;1893;52.526;13.360;2023-03-24T18:53:20;14.10;;;4.63;;